createdAt,value
2022-09-09T00:01:28.302Z,8.43
2022-09-09T00:04:02.337Z,8.13
2022-09-09T00:06:43.982Z,8.57
2022-09-09T00:09:16.731Z,8.77
2022-09-09T00:11:57.829Z,8.05
2022-09-09T00:14:33.868Z,7.70
2022-09-09T00:17:09.333Z,7.70
2022-09-09T00:22:27.246Z,7.20
2022-09-09T00:24:55.067Z,7.43
2022-09-09T00:27:47.851Z,7.78
2022-09-09T00:30:27.200Z,7.47
2022-09-09T00:33:15.975Z,8.88
2022-09-09T00:35:48.340Z,7.88
2022-09-09T00:38:16.824Z,7.30
2022-09-09T00:40:53.750Z,7.88
2022-09-09T00:43:36.882Z,7.40
2022-09-09T00:46:27.902Z,6.90
2022-09-09T00:49:01.014Z,6.63
2022-09-09T00:51:41.978Z,6.93
2022-09-09T00:54:24.259Z,7.07
2022-09-09T00:57:18.841Z,6.20
2022-09-09T00:59:58.324Z,5.90
2022-09-09T01:02:54.340Z,6.15
2022-09-09T01:05:33.503Z,5.72
2022-09-09T01:08:03.612Z,6.18
2022-09-09T01:10:42.807Z,5.30
2022-09-09T01:13:36.479Z,5.30
2022-09-09T01:16:12.578Z,5.70
2022-09-09T01:18:47.098Z,5.10
2022-09-09T01:21:51.761Z,5.00
2022-09-09T01:24:43.417Z,4.97
2022-09-09T01:27:22.550Z,5.22
2022-09-09T01:29:49.978Z,4.78
2022-09-09T01:32:47.730Z,4.22
2022-09-09T01:35:52.195Z,4.15
2022-09-09T01:38:20.421Z,4.45
2022-09-09T01:40:53.072Z,4.72
2022-09-09T01:43:24.777Z,4.00
2022-09-09T01:45:55.725Z,4.22
2022-09-09T01:48:24.774Z,4.30
2022-09-09T01:51:01.218Z,4.35
2022-09-09T01:53:28.660Z,4.60
2022-09-09T01:56:14.213Z,4.50
2022-09-09T01:59:02.545Z,4.50
2022-09-09T02:01:51.659Z,4.40
2022-09-09T02:04:38.992Z,3.78
2022-09-09T02:07:41.668Z,4.20
2022-09-09T02:10:35.128Z,4.63
2022-09-09T02:13:20.649Z,3.95
2022-09-09T02:15:59.542Z,3.50
2022-09-09T02:18:31.416Z,3.97
2022-09-09T02:20:59.831Z,3.60
2022-09-09T02:23:27.312Z,3.95
2022-09-09T02:25:58.860Z,3.42
2022-09-09T02:28:29.299Z,3.85
2022-09-09T02:30:56.914Z,3.75
2022-09-09T02:33:38.505Z,3.40
2022-09-09T02:36:08.837Z,3.67
2022-09-09T02:38:44.969Z,3.03
2022-09-09T02:41:15.046Z,3.35
2022-09-09T02:43:42.011Z,3.92
2022-09-09T02:46:13.106Z,3.40
2022-09-09T02:49:03.838Z,2.70
2022-09-09T02:51:47.755Z,3.05
2022-09-09T02:54:17.941Z,2.90
2022-09-09T02:56:52.915Z,3.00
2022-09-09T02:59:25.589Z,2.40
2022-09-09T03:01:54.676Z,3.45
2022-09-09T03:04:22.208Z,2.95
2022-09-09T03:06:50.201Z,3.22
2022-09-09T03:09:20.278Z,3.20
2022-09-09T03:11:47.174Z,3.50
2022-09-09T03:14:17.499Z,3.08
2022-09-09T03:16:45.798Z,3.50
2022-09-09T03:19:12.623Z,3.10
2022-09-09T03:21:40.090Z,3.55
2022-09-09T03:24:07.682Z,3.15
2022-09-09T03:26:34.632Z,3.50
2022-09-09T03:29:01.544Z,3.83
2022-09-09T03:31:31.334Z,4.20
2022-09-09T03:33:59.228Z,3.92
2022-09-09T03:36:29.178Z,3.95
2022-09-09T03:38:56.940Z,3.63
2022-09-09T03:41:27.187Z,4.03
2022-09-09T03:43:55.081Z,4.22
2022-09-09T03:46:25.754Z,3.83
2022-09-09T03:48:56.538Z,3.10
2022-09-09T03:51:23.578Z,4.07
2022-09-09T03:53:51.463Z,3.92
2022-09-09T03:56:18.676Z,3.97
2022-09-09T03:58:46.128Z,4.35
2022-09-09T04:01:15.145Z,4.38
2022-09-09T04:03:43.800Z,3.80
2022-09-09T04:06:13.470Z,4.35
2022-09-09T04:08:42.790Z,4.28
2022-09-09T04:11:10.972Z,4.32
2022-09-09T04:13:40.263Z,4.93
2022-09-09T04:16:11.883Z,4.25
2022-09-09T04:18:39.448Z,5.00
2022-09-09T04:21:09.416Z,4.38
2022-09-09T04:23:37.354Z,4.60
2022-09-09T04:26:06.488Z,4.28
2022-09-09T04:28:36.817Z,5.07
2022-09-09T04:31:13.453Z,4.53
2022-09-09T04:33:41.375Z,5.30
2022-09-09T04:36:10.017Z,4.90
2022-09-09T04:38:37.681Z,4.80
2022-09-09T04:41:05.704Z,4.32
2022-09-09T04:43:35.365Z,5.50
2022-09-09T04:46:04.933Z,4.68
2022-09-09T04:48:32.690Z,4.60
2022-09-09T04:51:02.831Z,5.35
2022-09-09T04:53:30.950Z,4.68
2022-09-09T04:56:12.299Z,4.05
2022-09-09T04:58:44.120Z,4.80
2022-09-09T05:01:13.935Z,4.65
2022-09-09T05:03:43.428Z,5.40
2022-09-09T05:06:18.291Z,5.72
2022-09-09T05:08:50.503Z,4.75
2022-09-09T05:11:28.822Z,4.80
2022-09-09T05:14:00.958Z,4.90
2022-09-09T05:16:31.228Z,4.82
2022-09-09T05:18:58.534Z,5.22
2022-09-09T05:21:27.977Z,4.78
2022-09-09T05:23:55.497Z,4.60
2022-09-09T05:26:23.723Z,4.72
2022-09-09T05:28:52.761Z,4.43
2022-09-09T05:31:20.479Z,4.50
2022-09-09T05:33:50.619Z,4.70
2022-09-09T05:36:20.229Z,4.88
2022-09-09T05:38:50.922Z,4.35
2022-09-09T05:41:18.965Z,4.50
2022-09-09T05:43:50.703Z,4.45
2022-09-09T05:46:31.367Z,4.18
2022-09-09T05:48:59.379Z,4.60
2022-09-09T05:51:31.385Z,4.00
2022-09-09T05:54:02.183Z,4.30
2022-09-09T05:56:33.557Z,3.45
2022-09-09T05:59:01.959Z,4.53
2022-09-09T06:01:34.261Z,4.18
2022-09-09T06:04:03.140Z,4.25
2022-09-09T06:06:37.941Z,4.63
2022-09-09T06:09:11.621Z,4.18
2022-09-09T06:11:42.581Z,4.30
2022-09-09T06:14:26.429Z,3.78
2022-09-09T06:16:54.189Z,4.38
2022-09-09T06:19:25.358Z,4.30
2022-09-09T06:21:52.412Z,4.03
2022-09-09T06:24:20.541Z,4.18
2022-09-09T06:26:47.544Z,3.38
2022-09-09T06:29:20.382Z,3.13
2022-09-09T06:31:48.687Z,3.50
2022-09-09T06:34:20.859Z,3.22
2022-09-09T06:36:53.082Z,3.40
2022-09-09T06:39:20.015Z,3.55
2022-09-09T06:41:48.221Z,3.85
2022-09-09T06:44:35.596Z,3.70
2022-09-09T06:47:04.519Z,3.88
2022-09-09T06:49:32.650Z,3.80
2022-09-09T06:52:01.137Z,3.75
2022-09-09T06:54:29.931Z,3.92
2022-09-09T06:56:56.931Z,3.95
2022-09-09T06:59:25.474Z,4.22
2022-09-09T07:01:56.384Z,4.32
2022-09-09T07:04:24.740Z,4.30
2022-09-09T07:06:53.565Z,4.53
2022-09-09T07:09:25.523Z,4.65
2022-09-09T07:11:54.338Z,4.45
2022-09-09T07:14:31.781Z,4.22
2022-09-09T07:17:01.606Z,4.50
2022-09-09T07:19:35.214Z,4.90
2022-09-09T07:22:04.395Z,4.90
2022-09-09T07:24:32.732Z,4.28
2022-09-09T07:27:00.643Z,3.83
2022-09-09T07:29:28.018Z,4.20
2022-09-09T07:31:55.083Z,4.05
2022-09-09T07:34:27.427Z,4.18
2022-09-09T07:36:54.440Z,4.85
2022-09-09T07:39:21.607Z,3.72
2022-09-09T07:41:52.747Z,3.55
2022-09-09T07:44:25.788Z,4.03
2022-09-09T07:47:10.052Z,5.70
2022-09-09T07:49:42.698Z,8.15
2022-09-09T07:52:10.597Z,9.82
2022-09-09T07:54:43.043Z,6.10
2022-09-09T07:57:11.410Z,6.45
2022-09-09T07:59:38.618Z,6.05
2022-09-09T08:02:06.146Z,4.60
2022-09-09T08:04:35.970Z,4.57
2022-09-09T08:07:04.378Z,4.03
2022-09-09T08:09:36.250Z,3.80
2022-09-09T08:12:13.973Z,3.10
2022-09-09T08:14:41.465Z,3.83
2022-09-09T08:17:08.373Z,2.92
2022-09-09T08:19:36.886Z,3.15
2022-09-09T08:22:08.884Z,3.58
2022-09-09T08:24:38.954Z,3.72
2022-09-09T08:27:06.532Z,3.40
2022-09-09T08:29:33.852Z,3.60
2022-09-09T08:32:00.878Z,3.85
2022-09-09T08:34:29.902Z,3.78
2022-09-09T08:36:58.926Z,5.45
2022-09-09T08:39:34.141Z,4.88
2022-09-09T08:42:04.160Z,6.72
2022-09-09T08:44:35.373Z,5.03
2022-09-09T08:47:42.065Z,3.47
2022-09-09T08:50:15.523Z,4.15
2022-09-09T08:52:55.790Z,3.58
2022-09-09T08:55:49.502Z,3.97
2022-09-09T08:58:31.918Z,3.10
2022-09-09T09:01:30.356Z,3.28
2022-09-09T09:04:31.452Z,2.42
2022-09-09T09:07:13.321Z,3.40
2022-09-09T09:09:59.911Z,3.78
2022-09-09T09:12:34.175Z,3.30
2022-09-09T09:15:01.971Z,3.38
2022-09-09T09:17:34.407Z,2.85
2022-09-09T09:20:01.626Z,2.67
2022-09-09T09:22:44.299Z,2.55
2022-09-09T09:25:18.918Z,2.80
2022-09-09T09:28:06.859Z,2.75
2022-09-09T09:30:43.870Z,2.40
2022-09-09T09:33:22.370Z,2.40
2022-09-09T09:35:52.006Z,2.65
2022-09-09T09:41:13.563Z,2.83
2022-09-09T09:43:45.839Z,2.63
2022-09-09T09:46:24.449Z,3.55
2022-09-09T09:49:03.893Z,3.72
2022-09-09T09:51:34.054Z,3.75
2022-09-09T09:54:29.938Z,3.67
2022-09-09T09:57:15.997Z,3.58
2022-09-09T09:59:44.879Z,3.33
2022-09-09T10:02:27.431Z,3.65
2022-09-09T10:05:23.194Z,3.35
2022-09-09T10:08:13.562Z,4.05
2022-09-09T10:10:59.255Z,3.60
2022-09-09T10:13:51.768Z,3.50
2022-09-09T10:16:52.120Z,4.00
2022-09-09T10:19:35.418Z,3.22
2022-09-09T10:22:28.692Z,3.13
2022-09-09T10:25:10.812Z,3.17
2022-09-09T10:28:06.082Z,3.33
2022-09-09T10:30:57.040Z,3.00
2022-09-09T10:33:42.333Z,3.05
2022-09-09T10:36:19.338Z,3.00
2022-09-09T10:39:02.128Z,2.95
2022-09-09T10:41:58.567Z,2.42
2022-09-09T10:44:55.540Z,2.97
2022-09-09T10:47:37.400Z,2.70
2022-09-09T10:50:28.160Z,3.47
2022-09-09T10:53:10.213Z,3.75
2022-09-09T10:55:43.024Z,3.47
2022-09-09T10:58:21.637Z,4.13
2022-09-09T11:00:57.891Z,4.43
2022-09-09T11:03:30.757Z,3.70
2022-09-09T11:06:14.268Z,3.33
2022-09-09T11:08:41.470Z,2.85
2022-09-09T11:11:27.221Z,3.35
2022-09-09T11:13:55.578Z,2.95
2022-09-09T11:16:43.522Z,2.70
2022-09-09T11:19:36.699Z,2.75
2022-09-09T11:22:19.090Z,3.03
2022-09-09T11:25:01.918Z,2.47
2022-09-09T11:27:54.781Z,2.88
2022-09-09T11:30:56.094Z,2.42
2022-09-09T11:33:38.118Z,2.25
2022-09-09T11:36:29.980Z,3.22
2022-09-09T11:39:23.043Z,2.67
2022-09-09T11:41:49.901Z,3.03
2022-09-09T11:44:27.646Z,2.25
2022-09-09T11:47:31.238Z,2.29
2022-09-09T11:50:16.352Z,1.50
2022-09-09T11:53:04.551Z,3.05
2022-09-09T12:05:23.171Z,5.07
2022-09-09T12:30:17.081Z,2.90
2022-09-09T12:32:45.708Z,3.10
2022-09-09T12:35:23.736Z,2.65
2022-09-09T12:37:57.934Z,3.10
2022-09-09T12:40:26.365Z,2.65
2022-09-09T12:42:53.647Z,2.47
2022-09-09T12:45:21.670Z,2.63
2022-09-09T12:47:57.544Z,2.17
2022-09-09T12:50:26.650Z,1.88
2022-09-09T12:52:59.424Z,1.90
2022-09-09T12:55:31.154Z,2.28
2022-09-09T12:58:00.504Z,2.60
2022-09-09T13:00:28.058Z,3.30
2022-09-09T13:02:57.942Z,2.92
2022-09-09T13:05:44.611Z,2.83
2022-09-09T13:08:13.482Z,3.03
2022-09-09T13:11:00.242Z,3.05
2022-09-09T13:13:41.874Z,2.72
2022-09-09T13:16:42.942Z,2.90
2022-09-09T13:19:14.942Z,3.95
2022-09-09T13:21:42.054Z,4.25
2022-09-09T13:24:30.369Z,3.40
2022-09-09T13:26:59.433Z,3.15
2022-09-09T13:29:26.391Z,2.90
2022-09-09T13:31:54.534Z,3.05
2022-09-09T13:34:28.789Z,2.67
2022-09-09T13:37:20.051Z,2.65
2022-09-09T13:39:54.220Z,3.45
2022-09-09T13:42:33.447Z,3.10
2022-09-09T13:45:05.708Z,2.95
2022-09-09T13:47:37.677Z,2.63
2022-09-09T13:50:40.131Z,2.85
2022-09-09T13:53:08.609Z,3.42
2022-09-09T13:55:37.769Z,3.60
2022-09-09T13:58:06.565Z,3.78
2022-09-09T14:00:35.387Z,4.55
2022-09-09T14:03:03.185Z,4.13
2022-09-09T14:05:33.904Z,3.75
2022-09-09T14:08:04.089Z,3.45
2022-09-09T14:10:31.125Z,4.32
2022-09-09T14:12:57.977Z,3.83
2022-09-09T14:15:25.137Z,3.47
2022-09-09T14:18:01.838Z,3.28
2022-09-09T14:20:28.750Z,3.00
2022-09-09T14:22:55.533Z,2.80
2022-09-09T14:25:22.494Z,3.10
2022-09-09T14:27:49.308Z,3.17
2022-09-09T14:30:16.280Z,3.85
2022-09-09T14:32:43.105Z,3.30
2022-09-09T14:35:10.241Z,3.80
2022-09-09T14:37:37.126Z,3.58
2022-09-09T14:40:04.407Z,3.60
2022-09-09T14:42:31.276Z,3.35
2022-09-09T14:44:58.225Z,2.80
2022-09-09T14:47:25.246Z,2.88
2022-09-09T14:49:52.068Z,3.25
2022-09-09T14:52:18.928Z,3.42
2022-09-09T14:54:45.882Z,3.40
2022-09-09T14:57:12.710Z,3.42
2022-09-09T14:59:39.625Z,3.20
2022-09-09T15:02:06.803Z,2.90
2022-09-09T15:04:33.795Z,3.17
2022-09-09T15:07:00.581Z,3.50
2022-09-09T15:09:27.568Z,3.28
2022-09-09T15:11:54.390Z,3.28
2022-09-09T15:14:22.503Z,2.95
2022-09-09T15:16:56.764Z,2.60
2022-09-09T15:19:23.571Z,2.03
2022-09-09T15:21:50.421Z,2.30
2022-09-09T15:24:18.004Z,2.50
2022-09-09T15:26:44.978Z,3.42
2022-09-09T15:29:12.007Z,2.53
2022-09-09T15:31:38.875Z,3.20
2022-09-09T15:34:08.115Z,3.33
2022-09-09T15:36:40.246Z,3.13
2022-09-09T15:39:13.419Z,2.92
2022-09-09T15:41:40.802Z,2.67
2022-09-09T15:44:07.854Z,3.17
2022-09-09T15:46:39.891Z,4.03
2022-09-09T15:49:11.528Z,4.03
2022-09-09T15:51:43.707Z,4.63
2022-09-09T15:54:14.228Z,4.38
2022-09-09T15:56:41.910Z,4.43
2022-09-09T15:59:08.980Z,3.95
2022-09-09T16:01:36.749Z,5.05
2022-09-09T16:04:04.942Z,4.55
2022-09-09T16:06:32.004Z,4.25
2022-09-09T16:09:02.026Z,4.00
2022-09-09T16:11:32.051Z,4.13
2022-09-09T16:14:00.846Z,4.57
2022-09-09T16:16:30.395Z,4.57
2022-09-09T16:19:00.259Z,4.30
2022-09-09T16:21:32.865Z,4.72
2022-09-09T16:24:01.907Z,3.58
2022-09-09T16:26:31.701Z,4.38
2022-09-09T16:29:02.344Z,4.13
2022-09-09T16:31:30.813Z,4.30
2022-09-09T16:33:58.879Z,4.00
2022-09-09T16:36:28.537Z,4.18
2022-09-09T16:38:58.347Z,5.53
2022-09-09T16:41:29.751Z,4.88
2022-09-09T16:44:07.680Z,5.20
2022-09-09T16:46:37.549Z,4.90
2022-09-09T16:49:06.451Z,4.90
2022-09-09T16:51:42.120Z,5.03
2022-09-09T16:54:32.960Z,5.03
2022-09-09T16:57:00.527Z,5.53
2022-09-09T16:59:27.568Z,5.43
2022-09-09T17:01:54.647Z,5.57
2022-09-09T17:04:26.468Z,5.68
2022-09-09T17:06:55.511Z,6.88
2022-09-09T17:09:24.053Z,6.13
2022-09-09T17:11:53.089Z,6.32
2022-09-09T17:14:22.033Z,5.82
2022-09-09T17:16:49.706Z,3.83
2022-09-09T17:19:17.035Z,4.07
2022-09-09T17:22:05.803Z,3.42
2022-09-09T17:24:30.828Z,3.17
2022-09-09T17:26:58.298Z,3.47
2022-09-09T17:29:25.956Z,3.83
2022-09-09T17:31:53.470Z,2.95
2022-09-09T17:34:20.351Z,2.72
2022-09-09T17:36:47.339Z,2.90
2022-09-09T17:39:14.383Z,3.03
2022-09-09T17:41:41.600Z,2.92
2022-09-09T17:44:10.629Z,2.72
2022-09-09T17:46:42.501Z,2.92
2022-09-09T17:49:18.817Z,2.47
2022-09-09T17:51:46.388Z,2.50
2022-09-09T17:54:22.265Z,2.80
2022-09-09T17:56:49.648Z,3.22
2022-09-09T17:59:18.035Z,3.10
2022-09-09T18:01:47.808Z,3.22
2022-09-09T18:04:16.516Z,2.72
2022-09-09T18:06:46.874Z,2.85
2022-09-09T18:09:20.765Z,3.00
2022-09-09T18:11:50.408Z,3.22
2022-09-09T18:14:23.095Z,3.42
2022-09-09T18:16:50.692Z,3.45
2022-09-09T18:19:21.503Z,4.47
2022-09-09T18:21:49.412Z,4.70
2022-09-09T18:24:17.762Z,4.45
2022-09-09T18:26:45.624Z,4.68
2022-09-09T18:29:14.619Z,4.72
2022-09-09T18:31:44.669Z,4.47
2022-09-09T18:34:13.346Z,4.65
2022-09-09T18:36:46.779Z,4.80
2022-09-09T18:39:15.674Z,4.78
2022-09-09T18:41:48.260Z,4.10
2022-09-09T18:44:21.404Z,4.53
2022-09-09T18:46:49.215Z,4.95
2022-09-09T18:49:16.099Z,5.45
2022-09-09T18:51:45.121Z,4.53
2022-09-09T18:54:20.652Z,4.70
2022-09-09T18:56:48.343Z,4.78
2022-09-09T18:59:21.507Z,4.55
2022-09-09T19:01:50.463Z,4.45
2022-09-09T19:04:18.832Z,3.90
2022-09-09T19:06:47.572Z,3.95
2022-09-09T19:09:16.567Z,3.25
2022-09-09T19:11:44.628Z,3.33
2022-09-09T19:14:14.145Z,3.33
2022-09-09T19:16:41.455Z,3.00
2022-09-09T19:19:14.687Z,3.47
2022-09-09T19:21:42.318Z,3.25
2022-09-09T19:24:14.301Z,3.13
2022-09-09T19:26:44.718Z,3.65
2022-09-09T19:29:20.994Z,3.00
2022-09-09T19:32:18.585Z,3.78
2022-09-09T19:34:36.434Z,3.28
2022-09-09T19:37:03.304Z,4.07
2022-09-09T19:39:30.223Z,4.22
2022-09-09T19:41:57.255Z,4.03
2022-09-09T19:44:24.083Z,4.00
2022-09-09T19:46:50.861Z,4.05
2022-09-09T19:49:17.989Z,3.95
2022-09-09T19:51:46.190Z,3.53
2022-09-09T19:54:16.174Z,3.00
2022-09-09T19:56:44.175Z,3.58
2022-09-09T19:59:12.753Z,4.15
2022-09-09T20:01:44.589Z,3.50
2022-09-09T20:04:12.555Z,3.67
2022-09-09T20:06:41.916Z,3.50
2022-09-09T20:09:14.614Z,3.28
2022-09-09T20:11:45.897Z,3.13
2022-09-09T20:14:13.760Z,3.38
2022-09-09T20:16:41.403Z,3.03
2022-09-09T20:19:11.090Z,2.97
2022-09-09T20:21:47.635Z,3.42
2022-09-09T20:24:18.369Z,3.65
2022-09-09T20:26:47.388Z,3.38
2022-09-09T20:29:16.710Z,3.90
2022-09-09T20:31:44.827Z,4.15
2022-09-09T20:34:14.579Z,3.78
2022-09-09T20:36:42.517Z,3.88
2022-09-09T20:39:15.499Z,3.60
2022-09-09T20:41:44.363Z,4.00
2022-09-09T20:44:24.107Z,4.07
2022-09-09T20:46:55.431Z,4.25
2022-09-09T20:49:24.191Z,4.25
2022-09-09T20:51:52.142Z,5.47
2022-09-09T20:54:24.571Z,4.88
2022-09-09T20:56:53.389Z,5.70
2022-09-09T20:59:23.231Z,5.75
2022-09-09T21:01:51.128Z,6.15
2022-09-09T21:04:20.198Z,5.90
2022-09-09T21:06:49.593Z,6.53
2022-09-09T21:09:17.720Z,5.90
2022-09-09T21:11:44.677Z,6.30
2022-09-09T21:14:11.908Z,5.85
2022-09-09T21:16:38.854Z,6.65
2022-09-09T21:19:06.770Z,6.47
2022-09-09T21:21:33.662Z,6.72
2022-09-09T21:24:00.869Z,7.45
2022-09-09T21:26:28.338Z,7.22
2022-09-09T21:28:55.916Z,7.88
2022-09-09T21:31:27.813Z,7.22
2022-09-09T21:33:59.229Z,7.25
2022-09-09T21:36:28.068Z,7.60
2022-09-09T21:38:54.948Z,7.45
2022-09-09T21:41:21.802Z,6.63
2022-09-09T21:43:52.494Z,8.68
2022-09-09T21:46:19.430Z,7.88
2022-09-09T21:48:46.361Z,8.98
2022-09-09T21:51:16.336Z,8.63
2022-09-09T21:53:44.176Z,7.82
2022-09-09T21:56:13.939Z,7.75
2022-09-09T21:58:41.797Z,8.05
2022-09-09T22:01:15.029Z,7.88
2022-09-09T22:03:42.720Z,9.10
2022-09-09T22:06:12.898Z,7.88
2022-09-09T22:08:40.390Z,8.52
2022-09-09T22:11:28.108Z,7.50
2022-09-09T22:13:54.995Z,7.60
2022-09-09T22:16:22.592Z,9.15
2022-09-09T22:18:56.775Z,9.32
2022-09-09T22:21:26.030Z,9.18
2022-09-09T22:23:58.500Z,10.07
2022-09-09T22:26:27.433Z,10.02
2022-09-09T22:28:54.289Z,8.68
2022-09-09T22:31:23.109Z,9.30
2022-09-09T22:33:51.924Z,9.13
2022-09-09T22:36:20.348Z,10.07
2022-09-09T22:38:51.922Z,8.30
2022-09-09T22:41:19.506Z,8.07
2022-09-09T22:43:46.953Z,8.18
2022-09-09T22:46:14.290Z,7.40
2022-09-09T22:48:41.357Z,5.97
2022-09-09T22:51:12.123Z,6.60
2022-09-09T22:53:41.116Z,6.95
2022-09-09T22:56:12.515Z,5.82
2022-09-09T22:58:40.783Z,5.65
2022-09-09T23:01:15.511Z,6.97
2022-09-09T23:03:45.999Z,9.75
2022-09-09T23:06:23.926Z,9.57
2022-09-09T23:08:59.491Z,10.45
2022-09-09T23:14:01.254Z,10.55
2022-09-09T23:16:39.645Z,10.55
2022-09-09T23:19:15.758Z,11.23
2022-09-09T23:21:45.078Z,10.75
2022-09-09T23:24:14.785Z,11.30
2022-09-09T23:26:43.441Z,11.98
2022-09-09T23:29:14.372Z,11.80
2022-09-09T23:31:43.379Z,11.57
2022-09-09T23:34:11.085Z,12.77
2022-09-09T23:36:39.170Z,13.30
2022-09-09T23:39:07.967Z,12.38
2022-09-09T23:41:36.973Z,13.55
2022-09-09T23:44:04.811Z,14.05
2022-09-09T23:46:33.003Z,14.02
2022-09-09T23:49:00.235Z,14.80
2022-09-09T23:51:30.300Z,14.88
2022-09-09T23:53:58.819Z,13.95
2022-09-09T23:56:28.760Z,14.40
2022-09-09T23:58:56.114Z,15.20
